TimeCDT,TemperatureF,Dew PointF,Humidity,Sea Level PressureIn,VisibilityMPH,Wind Direction,Wind SpeedMPH,Gust SpeedMPH,PrecipitationIn,Events,Conditions,WindDirDegrees,DateUTC
12:15 AM,77.0,70.5,80,30.09,10.0,South,6.9,-,N/A,,Clear,180,2013-08-26 05:15:00
12:35 AM,76.1,70.2,82,30.08,10.0,South,6.9,-,N/A,,Clear,180,2013-08-26 05:35:00
12:55 AM,76.5,69.8,80,30.08,10.0,South,8.1,-,N/A,,Clear,180,2013-08-26 05:55:00
1:15 AM,77.5,69.1,75,30.08,10.0,South,9.2,-,N/A,,Clear,180,2013-08-26 06:15:00
1:35 AM,78.8,68.9,72,30.08,10.0,South,11.5,-,N/A,,Clear,190,2013-08-26 06:35:00
1:55 AM,79.5,68.5,69,30.08,10.0,South,10.4,-,N/A,,Clear,190,2013-08-26 06:55:00
2:15 AM,79.0,68.4,70,30.08,10.0,South,10.4,-,N/A,,Clear,190,2013-08-26 07:15:00
2:35 AM,78.1,68.4,72,30.08,10.0,South,9.2,-,N/A,,Clear,190,2013-08-26 07:35:00
2:55 AM,77.7,68.4,73,30.08,10.0,South,9.2,-,N/A,,Clear,180,2013-08-26 07:55:00
3:15 AM,77.4,68.4,74,30.08,10.0,South,9.2,-,N/A,,Clear,190,2013-08-26 08:15:00
3:35 AM,77.9,68.4,72,30.08,10.0,South,10.4,-,N/A,,Clear,190,2013-08-26 08:35:00
3:55 AM,77.4,68.2,73,30.08,10.0,SSW,8.1,-,N/A,,Clear,200,2013-08-26 08:55:00
4:15 AM,77.0,68.4,75,30.07,10.0,South,9.2,-,N/A,,Clear,190,2013-08-26 09:15:00
4:35 AM,76.5,68.2,75,30.07,10.0,South,8.1,-,N/A,,Clear,190,2013-08-26 09:35:00
4:55 AM,76.1,68.4,77,30.07,10.0,South,8.1,-,N/A,,Clear,190,2013-08-26 09:55:00
5:15 AM,75.6,68.4,78,30.07,10.0,South,9.2,-,N/A,,Clear,190,2013-08-26 10:15:00
5:35 AM,75.2,68.2,79,30.07,10.0,South,6.9,-,N/A,,Clear,190,2013-08-26 10:35:00
5:55 AM,74.3,68.2,81,30.07,10.0,South,8.1,-,N/A,,Clear,180,2013-08-26 10:55:00
6:15 AM,73.8,68.2,83,30.07,10.0,South,8.1,-,N/A,,Clear,180,2013-08-26 11:15:00
6:35 AM,73.4,68.2,84,30.07,10.0,South,8.1,-,N/A,,Clear,190,2013-08-26 11:35:00
6:55 AM,73.6,68.2,83,30.08,10.0,South,9.2,-,N/A,,Clear,180,2013-08-26 11:55:00
7:15 AM,74.3,68.4,82,30.08,10.0,South,9.2,-,N/A,,Clear,190,2013-08-26 12:15:00
7:35 AM,75.4,68.5,79,30.08,10.0,South,9.2,-,N/A,,Clear,190,2013-08-26 12:35:00
7:55 AM,76.5,68.9,77,30.08,10.0,South,10.4,-,N/A,,Clear,190,2013-08-26 12:55:00
8:15 AM,78.1,69.1,74,30.07,10.0,SSW,11.5,16.1,N/A,,Clear,210,2013-08-26 13:15:00
8:35 AM,79.3,69.1,71,30.07,10.0,SSW,10.4,-,N/A,,Clear,200,2013-08-26 13:35:00
8:55 AM,80.6,69.1,68,30.07,10.0,SSW,16.1,20.7,N/A,,Clear,210,2013-08-26 13:55:00
9:15 AM,81.5,69.1,66,30.07,10.0,SSW,16.1,21.9,N/A,,Clear,210,2013-08-26 14:15:00
9:35 AM,82.4,69.1,64,30.07,10.0,SSW,11.5,18.4,N/A,,Clear,200,2013-08-26 14:35:00
9:55 AM,82.9,69.3,63,30.06,10.0,SSW,13.8,19.6,N/A,,Clear,200,2013-08-26 14:55:00
10:15 AM,84.7,69.6,60,30.06,10.0,South,11.5,-,N/A,,Clear,190,2013-08-26 15:15:00
10:35 AM,86.2,69.8,58,30.06,10.0,South,10.4,16.1,N/A,,Clear,190,2013-08-26 15:35:00
10:55 AM,87.8,69.8,55,30.06,10.0,SSW,12.7,17.3,N/A,,Clear,210,2013-08-26 15:55:00
11:15 AM,89.4,69.8,52,30.06,10.0,SSW,10.4,-,N/A,,Clear,200,2013-08-26 16:15:00
11:35 AM,90.3,69.3,50,30.05,10.0,SW,12.7,18.4,N/A,,Clear,220,2013-08-26 16:35:00
11:55 AM,91.9,69.1,47,30.05,10.0,South,12.7,18.4,N/A,,Clear,190,2013-08-26 16:55:00
12:15 PM,92.5,68.7,46,30.04,10.0,South,13.8,17.3,N/A,,Clear,190,2013-08-26 17:15:00
12:35 PM,93.0,68.7,45,30.04,10.0,South,15.0,19.6,N/A,,Clear,180,2013-08-26 17:35:00
12:55 PM,94.3,69.1,44,30.04,10.0,South,13.8,21.9,N/A,,Clear,180,2013-08-26 17:55:00
1:15 PM,94.6,68.0,42,30.02,10.0,South,12.7,18.4,N/A,,Clear,190,2013-08-26 18:15:00
1:35 PM,95.7,68.4,41,30.02,10.0,South,17.3,23.0,N/A,,Clear,190,2013-08-26 18:35:00
1:55 PM,95.9,66.0,37,30.01,10.0,SSW,16.1,-,N/A,,Clear,200,2013-08-26 18:55:00
2:15 PM,96.4,67.8,39,30.01,10.0,South,15.0,-,N/A,,Clear,190,2013-08-26 19:15:00
2:35 PM,96.3,67.1,38,30.01,10.0,SSW,11.5,20.7,N/A,,Clear,210,2013-08-26 19:35:00
2:55 PM,96.4,67.6,39,30.00,10.0,SSW,11.5,-,N/A,,Clear,200,2013-08-26 19:55:00
3:15 PM,95.9,68.0,40,30.00,10.0,South,17.3,21.9,N/A,,Clear,190,2013-08-26 20:15:00
3:35 PM,96.8,69.1,40,30.00,10.0,South,15.0,18.4,N/A,,Clear,190,2013-08-26 20:35:00
3:55 PM,96.3,69.4,42,29.99,10.0,South,13.8,-,N/A,,Clear,180,2013-08-26 20:55:00
4:15 PM,96.3,68.4,40,29.99,10.0,South,15.0,-,N/A,,Clear,180,2013-08-26 21:15:00
4:35 PM,96.1,69.3,42,29.98,10.0,South,13.8,-,N/A,,Clear,170,2013-08-26 21:35:00
4:55 PM,95.4,70.2,44,29.98,10.0,South,16.1,20.7,N/A,,Clear,170,2013-08-26 21:55:00
5:15 PM,95.0,69.6,43,29.98,10.0,SSE,18.4,24.2,N/A,,Clear,160,2013-08-26 22:15:00
5:35 PM,94.1,70.9,47,29.97,10.0,SSE,13.8,19.6,N/A,,Clear,160,2013-08-26 22:35:00
5:55 PM,94.3,70.2,45,29.97,10.0,South,11.5,-,N/A,,Clear,170,2013-08-26 22:55:00
6:15 PM,93.6,71.1,48,29.97,10.0,South,9.2,17.3,N/A,,Clear,170,2013-08-26 23:15:00
6:35 PM,92.8,70.5,48,29.97,10.0,South,15.0,18.4,N/A,,Clear,170,2013-08-26 23:35:00
6:55 PM,91.2,71.1,51,29.96,10.0,South,10.4,-,N/A,,Clear,170,2013-08-26 23:55:00
7:15 PM,89.8,70.3,53,29.96,10.0,South,9.2,-,N/A,,Clear,170,2013-08-27 00:15:00
7:35 PM,87.3,70.7,58,29.96,10.0,South,9.2,-,N/A,,Clear,170,2013-08-27 00:35:00
7:55 PM,85.6,70.5,60,29.96,10.0,South,9.2,-,N/A,,Clear,170,2013-08-27 00:55:00
8:15 PM,84.0,69.8,62,29.96,10.0,South,9.2,-,N/A,,Clear,170,2013-08-27 01:15:00
8:35 PM,82.2,69.8,66,29.96,10.0,South,8.1,-,N/A,,Clear,170,2013-08-27 01:35:00
8:55 PM,80.8,69.4,68,29.96,10.0,South,8.1,-,N/A,,Clear,170,2013-08-27 01:55:00
9:15 PM,79.7,68.9,69,29.96,10.0,South,8.1,-,N/A,,Clear,170,2013-08-27 02:15:00
9:35 PM,79.2,69.1,71,29.96,10.0,South,8.1,-,N/A,,Clear,170,2013-08-27 02:35:00
9:55 PM,78.8,69.1,72,29.95,10.0,South,8.1,-,N/A,,Clear,170,2013-08-27 02:55:00
10:15 PM,78.1,69.8,76,29.95,10.0,South,8.1,-,N/A,,Clear,170,2013-08-27 03:15:00
10:35 PM,77.2,69.8,78,29.95,10.0,South,6.9,-,N/A,,Clear,180,2013-08-27 03:35:00
10:55 PM,79.3,68.5,69,29.95,10.0,South,9.2,-,N/A,,Clear,190,2013-08-27 03:55:00
11:15 PM,80.6,67.6,65,29.95,10.0,South,10.4,-,N/A,,Clear,190,2013-08-27 04:15:00
11:35 PM,81.0,67.3,63,29.96,10.0,South,9.2,-,N/A,,Clear,190,2013-08-27 04:35:00
11:55 PM,80.6,67.1,63,29.96,10.0,South,8.1,-,N/A,,Clear,190,2013-08-27 04:55:00